Time;durP1;ratioP1;P1;durP2;ratioP2;P2;SDS_P1;SDS_P2;PMS_P1;PMS_P2;Temp;Humidity;BMP_temperature;BMP_pressure;BME280_temperature;BME280_humidity;BME280_pressure;Samples;Min_cycle;Max_cycle;Signal;HPM_P1;HPM_P2
2021/10/31 00:01:05;;;;;;;;;;;23.00;43.40;;;;;;1520582;76;733;-65
2021/10/31 00:03:06;;;;;;;;;;;23.10;43.50;;;;;;1507119;78;852;-65
2021/10/31 00:05:09;;;;;;;;;;;23.10;43.40;;;;;;1517192;76;678;-65
2021/10/31 00:07:11;;;;;;;;;;;23.10;43.40;;;;;;1508965;77;699;-65
2021/10/31 00:09:13;;;;;;;;;;;23.00;43.30;;;;;;1523025;78;1158;-65
2021/10/31 00:11:15;;;;;;;;;;;23.00;43.30;;;;;;1517775;78;647;-64
2021/10/31 00:13:17;;;;;;;;;;;23.00;43.20;;;;;;1516158;76;779;-65
2021/10/31 00:15:19;;;;;;;;;;;23.10;43.40;;;;;;1512694;76;1931;-64
2021/10/31 00:17:21;;;;;;;;;;;23.00;43.30;;;;;;1516352;78;733;-65
2021/10/31 00:19:23;;;;;;;;;;;23.00;43.40;;;;;;1521564;78;1139;-66
2021/10/31 00:21:26;;;;;;;;;;;23.00;43.40;;;;;;1519088;78;754;-64
2021/10/31 00:23:28;;;;;;;;;;;23.00;43.40;;;;;;1526737;76;723;-64
2021/10/31 00:25:30;;;;;;;;;;;23.00;43.30;;;;;;1518134;78;762;-65
2021/10/31 00:27:31;;;;;;;;;;;23.00;43.30;;;;;;1525065;76;716;-65
2021/10/31 00:29:33;;;;;;;;;;;23.00;43.40;;;;;;1510199;78;1151;-66
2021/10/31 00:31:36;;;;;;;;;;;23.00;43.40;;;;;;1516348;76;796;-67
2021/10/31 00:33:38;;;;;;;;;;;23.00;43.40;;;;;;1521102;77;826;-65
2021/10/31 00:35:40;;;;;;;;;;;23.00;43.40;;;;;;1509750;78;1939;-66
2021/10/31 00:37:42;;;;;;;;;;;23.00;43.40;;;;;;1521944;76;762;-66
2021/10/31 00:39:44;;;;;;;;;;;23.00;43.40;;;;;;1513195;78;1182;-67
2021/10/31 00:41:46;;;;;;;;;;;23.00;43.40;;;;;;1517390;78;786;-68
2021/10/31 00:43:48;;;;;;;;;;;23.10;43.50;;;;;;1507035;76;796;-68
2021/10/31 00:45:50;;;;;;;;;;;23.10;43.50;;;;;;1523176;78;811;-65
2021/10/31 00:47:53;;;;;;;;;;;23.00;43.40;;;;;;1505721;76;830;-67
2021/10/31 00:49:55;;;;;;;;;;;23.00;43.30;;;;;;1504680;76;1199;-68
2021/10/31 00:51:57;;;;;;;;;;;23.00;43.40;;;;;;1514854;76;783;-66
2021/10/31 00:54:00;;;;;;;;;;;23.00;43.30;;;;;;1523219;76;591;-67
2021/10/31 00:56:02;;;;;;;;;;;23.00;43.30;;;;;;1518021;76;1920;-64
2021/10/31 00:58:04;;;;;;;;;;;23.00;43.30;;;;;;1516431;78;698;-64
2021/10/31 01:00:06;;;;;;;;;;;23.00;43.40;;;;;;1523565;76;1146;-64
2021/10/31 01:02:10;;;;;;;;;;;23.00;43.40;;;;;;1510166;77;728;-64
2021/10/31 01:04:12;;;;;;;;;;;23.00;43.40;;;;;;1515227;76;2050;-65
2021/10/31 01:06:22;;;;;;;;;;;23.00;43.40;;;;;;1518033;78;862;-64
2021/10/31 01:08:28;;;;;;;;;;;23.00;43.50;;;;;;1526007;76;701;-68
2021/10/31 01:10:40;;;;;;;;;;;23.00;43.50;;;;;;1518000;76;1077;-67
2021/10/31 01:13:00;;;;;;;;;;;23.00;43.40;;;;;;1516912;77;2323;-65
2021/10/31 01:15:20;;;;;;;;;;;23.10;43.50;;;;;;1521808;77;1928;-66
2021/10/31 01:17:33;;;;;;;;;;;23.10;43.50;;;;;;1521789;77;736;-65
2021/10/31 01:19:45;;;;;;;;;;;23.00;43.40;;;;;;1515443;76;1203;-65
2021/10/31 01:21:49;;;;;;;;;;;23.10;43.60;;;;;;1513154;76;774;-63
2021/10/31 01:24:09;;;;;;;;;;;23.00;43.40;;;;;;1511853;76;2029;-66
2021/10/31 01:26:12;;;;;;;;;;;23.00;43.40;;;;;;1520748;77;996;-67
2021/10/31 01:28:16;;;;;;;;;;;23.00;43.40;;;;;;1513552;77;1763;-66
2021/10/31 01:30:19;;;;;;;;;;;23.00;43.40;;;;;;1514821;76;1166;-66
2021/10/31 01:32:26;;;;;;;;;;;23.00;43.40;;;;;;1520668;77;2026;-66
2021/10/31 01:34:32;;;;;;;;;;;23.00;43.40;;;;;;1515736;76;839;-68
2021/10/31 01:36:39;;;;;;;;;;;23.00;43.50;;;;;;1517156;77;1949;-66
2021/10/31 01:38:51;;;;;;;;;;;23.00;43.50;;;;;;1496686;76;1712;-66
2021/10/31 01:41:07;;;;;;;;;;;23.00;43.50;;;;;;1517798;77;1977;-65
2021/10/31 01:43:19;;;;;;;;;;;23.00;43.50;;;;;;1518932;78;707;-65
2021/10/31 01:45:23;;;;;;;;;;;23.10;43.60;;;;;;1515601;78;1498;-65
2021/10/31 01:47:43;;;;;;;;;;;23.00;43.50;;;;;;1511865;77;989;-66
2021/10/31 01:49:50;;;;;;;;;;;23.00;43.50;;;;;;1517422;78;1148;-66
2021/10/31 01:51:59;;;;;;;;;;;23.00;43.60;;;;;;1516075;78;672;-65
2021/10/31 01:54:01;;;;;;;;;;;23.00;43.50;;;;;;1520880;77;754;-66
2021/10/31 01:56:17;;;;;;;;;;;23.00;43.60;;;;;;1519481;78;1920;-66
2021/10/31 01:58:19;;;;;;;;;;;23.00;43.60;;;;;;1517946;78;779;-66
2021/10/31 02:00:21;;;;;;;;;;;23.00;43.60;;;;;;1520902;77;1120;-66
2021/10/31 02:02:23;;;;;;;;;;;23.00;43.60;;;;;;1508336;78;797;-66
2021/10/31 02:04:25;;;;;;;;;;;23.00;43.50;;;;;;1516510;77;772;-65
2021/10/31 02:06:27;;;;;;;;;;;23.00;43.50;;;;;;1514978;76;822;-65
2021/10/31 02:08:29;;;;;;;;;;;23.00;43.50;;;;;;1513752;77;894;-68
2021/10/31 02:10:31;;;;;;;;;;;23.00;43.50;;;;;;1521201;77;1140;-66
2021/10/31 02:12:34;;;;;;;;;;;23.00;43.60;;;;;;1514492;77;725;-64
2021/10/31 02:14:35;;;;;;;;;;;23.00;43.60;;;;;;1516862;76;779;-69
2021/10/31 02:16:37;;;;;;;;;;;23.00;43.60;;;;;;1514610;76;1958;-64
2021/10/31 02:18:39;;;;;;;;;;;23.00;43.60;;;;;;1519079;77;1140;-64
2021/10/31 02:20:42;;;;;;;;;;;23.00;43.70;;;;;;1538243;71;2110;-71
2021/10/31 02:22:45;;;;;;;;;;;23.00;43.80;;;;;;1541244;77;777;-70
2021/10/31 02:24:47;;;;;;;;;;;23.00;43.80;;;;;;1501186;77;1820;-73
2021/10/31 02:26:50;;;;;;;;;;;23.00;43.70;;;;;;1514296;76;703;-71
2021/10/31 02:28:55;;;;;;;;;;;23.00;43.70;;;;;;1518644;76;837;-72
2021/10/31 02:30:57;;;;;;;;;;;23.00;43.80;;;;;;1524887;76;1166;-68
2021/10/31 02:32:59;;;;;;;;;;;23.00;43.70;;;;;;1516795;76;714;-68
2021/10/31 02:35:01;;;;;;;;;;;23.10;43.90;;;;;;1516542;76;791;-69
2021/10/31 02:37:03;;;;;;;;;;;23.00;43.90;;;;;;1511549;78;1950;-68
2021/10/31 02:39:05;;;;;;;;;;;23.00;43.90;;;;;;1501329;77;810;-69
2021/10/31 02:41:07;;;;;;;;;;;23.00;43.90;;;;;;1525168;77;738;-67
2021/10/31 02:43:09;;;;;;;;;;;23.00;43.90;;;;;;1505589;77;754;-67
2021/10/31 02:45:11;;;;;;;;;;;23.00;43.90;;;;;;1528846;77;733;-66
2021/10/31 02:47:15;;;;;;;;;;;22.90;43.90;;;;;;1509814;77;794;-67
2021/10/31 02:49:17;;;;;;;;;;;23.00;43.90;;;;;;1511365;77;1119;-66
2021/10/31 02:51:20;;;;;;;;;;;23.00;43.90;;;;;;1509517;77;703;-67
2021/10/31 02:53:26;;;;;;;;;;;23.00;44.00;;;;;;1502892;77;1477;-68
2021/10/31 02:55:41;;;;;;;;;;;22.90;44.00;;;;;;1519405;77;1934;-68
2021/10/31 02:58:02;;;;;;;;;;;23.00;44.00;;;;;;1529823;77;725;-67
2021/10/31 03:00:05;;;;;;;;;;;23.00;44.00;;;;;;1541977;76;1153;-64
2021/10/31 03:02:07;;;;;;;;;;;23.00;44.10;;;;;;1540789;76;2177;-66
2021/10/31 03:04:09;;;;;;;;;;;23.00;44.10;;;;;;1531184;76;690;-66
2021/10/31 03:06:11;;;;;;;;;;;23.00;44.20;;;;;;1558509;76;700;-68
2021/10/31 03:08:13;;;;;;;;;;;23.00;44.20;;;;;;1543570;75;851;-66
2021/10/31 03:10:16;;;;;;;;;;;23.00;44.20;;;;;;1550383;76;1113;-67
2021/10/31 03:12:18;;;;;;;;;;;23.00;44.20;;;;;;1555046;75;812;-67
2021/10/31 03:14:20;;;;;;;;;;;23.00;44.30;;;;;;1536661;76;750;-66
2021/10/31 03:16:22;;;;;;;;;;;23.00;44.30;;;;;;1551719;75;1938;-67
2021/10/31 03:18:24;;;;;;;;;;;23.00;44.30;;;;;;1505613;77;812;-63
2021/10/31 03:20:26;;;;;;;;;;;23.00;44.30;;;;;;1539004;75;1190;-67
2021/10/31 03:22:28;;;;;;;;;;;23.00;44.30;;;;;;1531666;76;750;-67
2021/10/31 03:24:30;;;;;;;;;;;23.00;44.20;;;;;;1548584;76;727;-68
2021/10/31 03:26:32;;;;;;;;;;;23.00;44.30;;;;;;1541837;76;773;-68
2021/10/31 03:28:34;;;;;;;;;;;23.10;44.40;;;;;;1495633;77;716;-67
2021/10/31 03:30:35;;;;;;;;;;;23.00;44.30;;;;;;1493604;77;1127;-67
2021/10/31 03:32:37;;;;;;;;;;;23.10;44.40;;;;;;1535147;76;801;-68
2021/10/31 03:34:39;;;;;;;;;;;23.10;44.40;;;;;;1544168;76;809;-68
2021/10/31 03:36:41;;;;;;;;;;;23.10;44.40;;;;;;1517295;77;1937;-68
2021/10/31 03:38:43;;;;;;;;;;;23.10;44.30;;;;;;1499508;77;785;-70
2021/10/31 03:40:45;;;;;;;;;;;23.20;44.20;;;;;;1508043;77;1277;-68
2021/10/31 03:42:47;;;;;;;;;;;23.20;44.00;;;;;;1552887;75;796;-67
2021/10/31 03:44:50;;;;;;;;;;;23.30;44.00;;;;;;1532690;75;809;-68
2021/10/31 03:46:52;;;;;;;;;;;23.40;43.90;;;;;;1542183;75;830;-70
2021/10/31 03:48:54;;;;;;;;;;;23.40;43.70;;;;;;1517841;76;726;-68
2021/10/31 03:50:56;;;;;;;;;;;23.50;43.80;;;;;;1514321;76;1123;-69
2021/10/31 03:52:57;;;;;;;;;;;23.40;43.60;;;;;;1512578;76;787;-67
2021/10/31 03:54:59;;;;;;;;;;;23.50;43.60;;;;;;1493513;78;783;-66
2021/10/31 03:57:01;;;;;;;;;;;23.50;43.60;;;;;;1498425;77;1939;-66
2021/10/31 03:59:03;;;;;;;;;;;23.40;43.60;;;;;;1509576;77;794;-68
2021/10/31 04:01:05;;;;;;;;;;;23.30;43.60;;;;;;1503562;77;1157;-68
2021/10/31 04:03:07;;;;;;;;;;;23.40;43.70;;;;;;1510479;77;779;-69
2021/10/31 04:05:09;;;;;;;;;;;23.30;43.90;;;;;;1517236;76;690;-69
2021/10/31 04:07:11;;;;;;;;;;;23.20;43.90;;;;;;1499879;77;696;-68
2021/10/31 04:09:13;;;;;;;;;;;23.20;43.90;;;;;;1524586;76;1135;-69
2021/10/31 04:11:15;;;;;;;;;;;23.20;43.90;;;;;;1490694;77;682;-71
2021/10/31 04:13:17;;;;;;;;;;;23.20;44.10;;;;;;1512245;77;773;-69
2021/10/31 04:15:19;;;;;;;;;;;23.20;44.20;;;;;;1518629;75;779;-69
2021/10/31 04:17:21;;;;;;;;;;;23.20;44.20;;;;;;1519671;76;1938;-69
2021/10/31 04:19:23;;;;;;;;;;;23.20;44.10;;;;;;1516544;76;1114;-69
2021/10/31 04:21:25;;;;;;;;;;;23.10;44.20;;;;;;1488178;78;804;-66
2021/10/31 04:23:27;;;;;;;;;;;23.10;44.20;;;;;;1514529;76;782;-66
2021/10/31 04:25:29;;;;;;;;;;;23.20;44.10;;;;;;1488297;77;784;-68
2021/10/31 04:27:32;;;;;;;;;;;23.20;44.10;;;;;;1533113;76;669;-66
2021/10/31 04:29:34;;;;;;;;;;;23.10;44.20;;;;;;1536700;76;1169;-66
2021/10/31 04:31:36;;;;;;;;;;;23.10;44.40;;;;;;1541532;76;775;-69
2021/10/31 04:33:38;;;;;;;;;;;23.20;44.20;;;;;;1547479;76;728;-66
2021/10/31 04:35:39;;;;;;;;;;;23.20;44.20;;;;;;1523484;76;787;-66
2021/10/31 04:37:44;;;;;;;;;;;23.10;44.20;;;;;;1510691;76;1945;-66
2021/10/31 04:39:47;;;;;;;;;;;23.20;44.20;;;;;;1504696;77;1767;-69
2021/10/31 04:41:48;;;;;;;;;;;23.10;44.10;;;;;;1506889;77;1470;-67
2021/10/31 04:43:50;;;;;;;;;;;23.20;44.20;;;;;;1529972;76;784;-67
2021/10/31 04:45:52;;;;;;;;;;;23.20;44.20;;;;;;1498847;77;796;-67
2021/10/31 04:47:54;;;;;;;;;;;23.20;44.20;;;;;;1552269;76;727;-68
2021/10/31 04:49:56;;;;;;;;;;;23.20;44.10;;;;;;1508479;77;1147;-67
2021/10/31 04:51:58;;;;;;;;;;;23.30;44.20;;;;;;1505423;77;844;-67
2021/10/31 04:54:00;;;;;;;;;;;23.20;44.00;;;;;;1516120;76;725;-68
2021/10/31 04:56:02;;;;;;;;;;;23.20;43.90;;;;;;1530886;76;733;-69
2021/10/31 04:58:03;;;;;;;;;;;23.30;43.90;;;;;;1531996;77;1951;-66
2021/10/31 05:00:06;;;;;;;;;;;23.30;43.90;;;;;;1531435;77;1135;-67
2021/10/31 05:02:08;;;;;;;;;;;23.30;43.90;;;;;;1563524;75;741;-64
2021/10/31 05:04:09;;;;;;;;;;;23.30;43.70;;;;;;1573182;74;814;-66
2021/10/31 05:06:11;;;;;;;;;;;23.30;43.70;;;;;;1582014;74;680;-66
2021/10/31 05:08:13;;;;;;;;;;;23.40;43.60;;;;;;1578255;74;800;-65
2021/10/31 05:10:18;;;;;;;;;;;23.60;43.30;;;;;;1577377;74;1173;-66
2021/10/31 05:12:22;;;;;;;;;;;23.50;43.10;;;;;;1559466;74;793;-65
2021/10/31 05:14:23;;;;;;;;;;;23.60;43.10;;;;;;1568771;74;794;-66
2021/10/31 05:16:25;;;;;;;;;;;23.60;43.10;;;;;;1577590;74;1932;-66
2021/10/31 05:18:27;;;;;;;;;;;23.60;43.10;;;;;;1573681;74;777;-66
2021/10/31 05:20:29;;;;;;;;;;;23.60;42.80;;;;;;1568857;74;1155;-66
2021/10/31 05:22:31;;;;;;;;;;;23.70;42.90;;;;;;1574563;74;773;-66
2021/10/31 05:24:33;;;;;;;;;;;23.70;42.80;;;;;;1584113;74;801;-67
2021/10/31 05:26:35;;;;;;;;;;;23.80;42.60;;;;;;1570446;74;802;-64
2021/10/31 05:28:37;;;;;;;;;;;23.90;42.60;;;;;;1564750;74;758;-65
2021/10/31 05:30:38;;;;;;;;;;;23.90;42.60;;;;;;1561766;74;1178;-65
2021/10/31 05:32:41;;;;;;;;;;;23.90;42.60;;;;;;1565311;74;639;-66
2021/10/31 05:34:42;;;;;;;;;;;23.90;42.50;;;;;;1546699;74;819;-71
2021/10/31 05:36:44;;;;;;;;;;;23.90;42.50;;;;;;1575718;74;1942;-69
2021/10/31 05:38:47;;;;;;;;;;;23.90;42.40;;;;;;1566642;74;693;-68
2021/10/31 05:40:49;;;;;;;;;;;23.90;42.40;;;;;;1559126;74;1158;-71
2021/10/31 05:42:51;;;;;;;;;;;24.00;42.30;;;;;;1580023;74;720;-70
2021/10/31 05:44:52;;;;;;;;;;;24.00;42.30;;;;;;1567452;74;760;-67
2021/10/31 05:46:54;;;;;;;;;;;23.90;42.30;;;;;;1576757;74;799;-68
2021/10/31 05:48:56;;;;;;;;;;;24.00;42.30;;;;;;1557281;74;723;-68
2021/10/31 05:50:58;;;;;;;;;;;24.00;42.30;;;;;;1572149;74;1084;-66
2021/10/31 05:53:00;;;;;;;;;;;24.00;42.30;;;;;;1558075;74;880;-65
2021/10/31 05:55:02;;;;;;;;;;;23.90;42.50;;;;;;1567426;74;754;-66
2021/10/31 05:57:04;;;;;;;;;;;23.90;42.60;;;;;;1567047;74;1934;-68
2021/10/31 05:59:06;;;;;;;;;;;23.80;42.80;;;;;;1582457;74;757;-64
2021/10/31 06:01:08;;;;;;;;;;;23.80;42.90;;;;;;1570876;74;728;-64
2021/10/31 06:03:10;;;;;;;;;;;23.70;43.00;;;;;;1555807;74;748;-69
2021/10/31 06:05:12;;;;;;;;;;;23.70;43.20;;;;;;1570278;74;691;-70
2021/10/31 06:07:14;;;;;;;;;;;23.70;43.10;;;;;;1574503;74;853;-71
2021/10/31 06:09:16;;;;;;;;;;;23.60;43.10;;;;;;1565773;73;1153;-68
2021/10/31 06:11:18;;;;;;;;;;;23.60;43.20;;;;;;1553524;74;735;-69
2021/10/31 06:13:20;;;;;;;;;;;23.60;43.30;;;;;;1570762;74;691;-70
2021/10/31 06:15:22;;;;;;;;;;;23.60;43.10;;;;;;1565928;74;712;-69
2021/10/31 06:17:24;;;;;;;;;;;23.60;43.20;;;;;;1558278;74;1935;-70
2021/10/31 06:19:26;;;;;;;;;;;23.60;43.10;;;;;;1574395;74;1118;-70
2021/10/31 06:21:28;;;;;;;;;;;23.70;43.10;;;;;;1568883;74;747;-70
2021/10/31 06:23:30;;;;;;;;;;;23.70;43.10;;;;;;1572575;74;865;-68
2021/10/31 06:25:32;;;;;;;;;;;23.60;43.10;;;;;;1582118;74;743;-69
2021/10/31 06:27:34;;;;;;;;;;;23.60;43.30;;;;;;1573445;74;685;-69
2021/10/31 06:29:36;;;;;;;;;;;23.50;43.40;;;;;;1564086;74;1192;-69
2021/10/31 06:31:38;;;;;;;;;;;23.50;43.60;;;;;;1576527;74;769;-71
2021/10/31 06:33:39;;;;;;;;;;;23.50;43.70;;;;;;1560106;74;792;-69
2021/10/31 06:35:41;;;;;;;;;;;23.40;43.70;;;;;;1552032;74;796;-69
2021/10/31 06:37:43;;;;;;;;;;;23.40;43.90;;;;;;1560498;74;1906;-68
2021/10/31 06:39:45;;;;;;;;;;;23.40;44.10;;;;;;1547656;74;1147;-67
2021/10/31 06:41:47;;;;;;;;;;;23.40;44.10;;;;;;1555991;74;774;-67
2021/10/31 06:43:49;;;;;;;;;;;23.40;44.20;;;;;;1557773;74;746;-70
2021/10/31 06:45:51;;;;;;;;;;;23.30;44.30;;;;;;1564652;74;795;-71
2021/10/31 06:47:53;;;;;;;;;;;23.30;44.40;;;;;;1550494;74;795;-72
2021/10/31 06:49:55;;;;;;;;;;;23.30;44.40;;;;;;1555701;74;1144;-72
2021/10/31 06:51:59;;;;;;;;;;;23.30;44.40;;;;;;1553181;74;756;-71
2021/10/31 06:54:01;;;;;;;;;;;23.30;44.50;;;;;;1550179;74;764;-70
2021/10/31 06:56:03;;;;;;;;;;;23.30;44.50;;;;;;1554701;74;786;-69
2021/10/31 06:58:05;;;;;;;;;;;23.30;44.60;;;;;;1559899;74;1935;-69
2021/10/31 07:00:07;;;;;;;;;;;23.30;44.60;;;;;;1560576;74;1141;-69
2021/10/31 07:02:09;;;;;;;;;;;23.30;44.70;;;;;;1553665;74;707;-69
2021/10/31 07:04:11;;;;;;;;;;;23.30;44.60;;;;;;1557712;74;752;-69
2021/10/31 07:06:13;;;;;;;;;;;23.30;44.70;;;;;;1552413;74;903;-68
2021/10/31 07:08:15;;;;;;;;;;;23.30;44.70;;;;;;1557168;74;690;-68
2021/10/31 07:10:17;;;;;;;;;;;23.30;44.80;;;;;;1554292;74;1116;-70
2021/10/31 07:12:18;;;;;;;;;;;23.30;44.80;;;;;;1561021;74;709;-69
2021/10/31 07:14:20;;;;;;;;;;;23.30;44.90;;;;;;1558336;74;737;-70
2021/10/31 07:16:22;;;;;;;;;;;23.30;44.90;;;;;;1554977;74;838;-68
2021/10/31 07:18:24;;;;;;;;;;;23.30;44.90;;;;;;1549414;74;1935;-67
2021/10/31 07:20:26;;;;;;;;;;;23.30;44.90;;;;;;1557382;74;1101;-68
2021/10/31 07:22:28;;;;;;;;;;;23.30;44.90;;;;;;1558617;74;780;-70
2021/10/31 07:24:30;;;;;;;;;;;23.30;44.90;;;;;;1561973;74;769;-68
2021/10/31 07:26:32;;;;;;;;;;;23.40;44.90;;;;;;1555788;74;769;-69
2021/10/31 07:28:34;;;;;;;;;;;23.30;45.00;;;;;;1562315;74;840;-69
2021/10/31 07:30:36;;;;;;;;;;;23.30;44.90;;;;;;1558048;74;1204;-69
2021/10/31 07:32:38;;;;;;;;;;;23.20;44.80;;;;;;1555514;74;748;-67
2021/10/31 07:34:40;;;;;;;;;;;23.30;45.00;;;;;;1558269;74;766;-67
2021/10/31 07:36:42;;;;;;;;;;;23.50;44.60;;;;;;1568328;74;745;-67
2021/10/31 07:38:44;;;;;;;;;;;23.60;43.60;;;;;;1547253;74;1935;-69
2021/10/31 07:40:46;;;;;;;;;;;23.60;43.10;;;;;;1568688;74;1125;-66
2021/10/31 07:42:48;;;;;;;;;;;23.60;42.80;;;;;;1563023;75;792;-67
2021/10/31 07:44:50;;;;;;;;;;;23.50;42.60;;;;;;1558495;75;755;-68
2021/10/31 07:46:51;;;;;;;;;;;23.60;42.40;;;;;;1571262;75;781;-66
2021/10/31 07:48:53;;;;;;;;;;;23.60;42.10;;;;;;1570333;74;795;-67
2021/10/31 07:50:55;;;;;;;;;;;23.50;42.10;;;;;;1546901;75;1075;-66
2021/10/31 07:52:57;;;;;;;;;;;23.60;41.90;;;;;;1551747;75;743;-67
2021/10/31 07:55:00;;;;;;;;;;;23.60;42.00;;;;;;1552769;75;688;-74
2021/10/31 07:57:03;;;;;;;;;;;23.60;42.00;;;;;;1568918;74;778;-67
2021/10/31 07:59:05;;;;;;;;;;;23.60;42.20;;;;;;1547760;74;1892;-68
2021/10/31 08:01:06;;;;;;;;;;;23.60;42.20;;;;;;1567759;75;1137;-70
2021/10/31 08:03:08;;;;;;;;;;;23.60;42.30;;;;;;1562559;75;726;-70
2021/10/31 08:05:10;;;;;;;;;;;23.60;42.30;;;;;;1556878;74;735;-71
2021/10/31 08:07:13;;;;;;;;;;;23.60;42.20;;;;;;1556452;74;645;-71
2021/10/31 08:09:16;;;;;;;;;;;23.60;41.60;;;;;;1569170;74;1165;-70
2021/10/31 08:11:18;;;;;;;;;;;23.60;41.30;;;;;;1564180;75;741;-71
2021/10/31 08:13:20;;;;;;;;;;;23.60;41.20;;;;;;1566025;75;778;-72
2021/10/31 08:15:22;;;;;;;;;;;23.50;41.00;;;;;;1553888;75;925;-72
2021/10/31 08:17:25;;;;;;;;;;;23.60;40.90;;;;;;1562338;75;1938;-72
2021/10/31 08:19:27;;;;;;;;;;;23.50;40.80;;;;;;1563040;74;226630;-56
2021/10/31 08:21:29;;;;;;;;;;;23.60;40.90;;;;;;1539680;72;224002;-71
2021/10/31 08:23:31;;;;;;;;;;;23.50;41.00;;;;;;1534869;76;636;-71
2021/10/31 08:25:33;;;;;;;;;;;23.50;40.90;;;;;;1543225;76;807;-71
2021/10/31 08:27:35;;;;;;;;;;;23.50;41.00;;;;;;1541365;76;830;-71
2021/10/31 08:29:37;;;;;;;;;;;23.60;41.00;;;;;;1543599;76;1192;-72
2021/10/31 08:31:41;;;;;;;;;;;23.60;41.00;;;;;;1539433;76;731;-71
2021/10/31 08:33:44;;;;;;;;;;;23.50;41.00;;;;;;1535510;76;1718;-71
2021/10/31 08:35:46;;;;;;;;;;;23.60;41.00;;;;;;1548501;76;805;-71
2021/10/31 08:37:48;;;;;;;;;;;23.60;40.90;;;;;;1555032;76;1911;-70
2021/10/31 08:39:50;;;;;;;;;;;23.60;40.80;;;;;;1539519;76;1187;-70
2021/10/31 08:41:52;;;;;;;;;;;23.60;40.80;;;;;;1542325;76;773;-71
2021/10/31 08:43:54;;;;;;;;;;;23.60;40.70;;;;;;1548344;76;854;-73
2021/10/31 08:45:56;;;;;;;;;;;23.60;40.80;;;;;;1531177;76;724;-71
2021/10/31 08:48:00;;;;;;;;;;;23.60;40.70;;;;;;1529352;77;743;-72
2021/10/31 08:50:01;;;;;;;;;;;23.60;40.60;;;;;;1537386;76;1156;-71
2021/10/31 08:52:07;;;;;;;;;;;23.60;40.70;;;;;;1543346;76;671;-70
2021/10/31 08:54:07;;;;;;;;;;;23.70;40.80;;;;;;1547057;76;1475;-70
2021/10/31 08:56:13;;;;;;;;;;;23.70;40.90;;;;;;1534632;76;710;-69
2021/10/31 08:58:15;;;;;;;;;;;23.70;40.70;;;;;;1536552;76;1915;-73
2021/10/31 09:00:17;;;;;;;;;;;23.70;40.90;;;;;;1539949;76;1133;-69
2021/10/31 09:02:19;;;;;;;;;;;23.70;40.80;;;;;;1559148;75;743;-69
2021/10/31 09:04:20;;;;;;;;;;;23.70;40.70;;;;;;1548305;76;781;-70
2021/10/31 09:06:23;;;;;;;;;;;23.70;40.90;;;;;;1538480;76;777;-70
2021/10/31 09:08:24;;;;;;;;;;;23.70;40.90;;;;;;1526407;77;702;-70
2021/10/31 09:10:26;;;;;;;;;;;23.70;40.90;;;;;;1540272;76;1176;-70
2021/10/31 09:12:28;;;;;;;;;;;23.80;41.00;;;;;;1533877;76;800;-70
2021/10/31 09:14:30;;;;;;;;;;;23.70;41.10;;;;;;1530302;76;772;-70
2021/10/31 09:16:33;;;;;;;;;;;23.80;41.20;;;;;;1538455;76;676;-70
2021/10/31 09:18:35;;;;;;;;;;;23.70;41.30;;;;;;1519828;76;1910;-69
2021/10/31 09:20:36;;;;;;;;;;;23.70;41.30;;;;;;1527932;76;1101;-70
2021/10/31 09:22:38;;;;;;;;;;;23.80;41.40;;;;;;1549447;76;705;-71
2021/10/31 09:24:40;;;;;;;;;;;23.80;41.30;;;;;;1528615;77;806;-69
2021/10/31 09:26:42;;;;;;;;;;;23.90;40.80;;;;;;1530524;76;738;-70
2021/10/31 09:28:44;;;;;;;;;;;23.70;40.40;;;;;;1529469;77;728;-70
2021/10/31 09:30:46;;;;;;;;;;;23.80;40.20;;;;;;1533608;76;1201;-70
2021/10/31 09:32:48;;;;;;;;;;;23.70;39.70;;;;;;1531606;76;778;-70
2021/10/31 09:34:51;;;;;;;;;;;23.70;39.70;;;;;;1530327;77;740;-70
2021/10/31 09:36:53;;;;;;;;;;;23.80;39.80;;;;;;1516791;76;822;-70
2021/10/31 09:38:56;;;;;;;;;;;23.70;39.40;;;;;;1515692;77;1914;-71
2021/10/31 09:40:58;;;;;;;;;;;23.70;39.40;;;;;;1532263;76;1162;-69
2021/10/31 09:43:01;;;;;;;;;;;23.80;39.50;;;;;;1552730;75;666;-69
2021/10/31 09:45:04;;;;;;;;;;;23.70;39.30;;;;;;1548864;75;651;-70
2021/10/31 09:47:06;;;;;;;;;;;23.70;39.20;;;;;;1542081;75;741;-73
2021/10/31 09:49:08;;;;;;;;;;;23.70;39.00;;;;;;1543524;76;726;-69
2021/10/31 09:51:09;;;;;;;;;;;23.70;38.90;;;;;;1552433;75;1087;-68
2021/10/31 09:53:11;;;;;;;;;;;23.60;38.80;;;;;;1542498;76;664;-69
2021/10/31 09:55:13;;;;;;;;;;;23.70;38.30;;;;;;1539630;76;827;-70
2021/10/31 09:57:15;;;;;;;;;;;23.60;37.70;;;;;;1517282;76;777;-71
2021/10/31 09:59:24;;;;;;;;;;;23.60;37.90;;;;;;1537307;76;1942;-70
2021/10/31 10:01:25;;;;;;;;;;;23.60;38.20;;;;;;1532102;76;1644;-75
2021/10/31 10:05:34;;;;;;;;;;;23.40;38.10;;;;;;1525285;76;876;-68
2021/10/31 10:07:36;;;;;;;;;;;23.40;38.30;;;;;;1534714;76;720;-67
2021/10/31 10:09:37;;;;;;;;;;;23.50;38.60;;;;;;1529697;76;1165;-69
2021/10/31 10:11:40;;;;;;;;;;;23.50;38.10;;;;;;1538539;76;793;-73
2021/10/31 10:13:42;;;;;;;;;;;23.40;38.00;;;;;;1546008;76;721;-71
2021/10/31 10:15:44;;;;;;;;;;;23.50;37.00;;;;;;1539002;76;750;-67
2021/10/31 10:17:50;;;;;;;;;;;23.40;37.90;;;;;;1548450;76;750;-64
2021/10/31 10:19:55;;;;;;;;;;;23.40;38.10;;;;;;1553584;76;1912;-64
2021/10/31 10:22:01;;;;;;;;;;;23.30;38.30;;;;;;1540910;76;827;-67
2021/10/31 10:24:10;;;;;;;;;;;23.30;38.40;;;;;;1546686;76;1084;-68
2021/10/31 10:26:12;;;;;;;;;;;23.30;38.30;;;;;;1530721;76;680;-65
2021/10/31 10:28:23;;;;;;;;;;;23.30;38.20;;;;;;1550152;77;736;-69
2021/10/31 10:30:25;;;;;;;;;;;23.30;37.90;;;;;;1526947;76;1176;-66
2021/10/31 10:32:27;;;;;;;;;;;23.30;38.20;;;;;;1526308;77;775;-66
2021/10/31 10:34:49;;;;;;;;;;;23.30;38.30;;;;;;1528104;76;660;-67
2021/10/31 10:36:56;;;;;;;;;;;23.30;38.30;;;;;;1552119;76;679;-66
2021/10/31 10:38:59;;;;;;;;;;;23.30;38.40;;;;;;1557450;76;1934;-68
2021/10/31 10:41:01;;;;;;;;;;;23.30;38.40;;;;;;1555145;76;1136;-66
2021/10/31 10:43:03;;;;;;;;;;;23.30;38.50;;;;;;1552400;76;716;-67
2021/10/31 10:45:05;;;;;;;;;;;23.30;38.60;;;;;;1538538;76;814;-64
2021/10/31 10:47:08;;;;;;;;;;;23.30;38.60;;;;;;1523685;76;708;-68
2021/10/31 10:49:11;;;;;;;;;;;23.30;38.50;;;;;;1527302;76;812;-66
2021/10/31 10:51:16;;;;;;;;;;;23.30;38.40;;;;;;1529778;76;1098;-69
2021/10/31 10:53:24;;;;;;;;;;;23.30;38.50;;;;;;1515275;76;686;-68
2021/10/31 10:55:27;;;;;;;;;;;23.30;38.40;;;;;;1549318;76;775;-66
2021/10/31 10:57:31;;;;;;;;;;;23.30;38.30;;;;;;1520442;76;745;-68
2021/10/31 10:59:33;;;;;;;;;;;23.30;38.40;;;;;;1529536;76;1941;-68
2021/10/31 11:01:35;;;;;;;;;;;23.30;38.40;;;;;;1526996;76;762;-68
2021/10/31 11:03:37;;;;;;;;;;;23.20;38.30;;;;;;1519893;76;678;-68
2021/10/31 11:05:41;;;;;;;;;;;23.20;38.40;;;;;;1541423;76;821;-69
2021/10/31 11:07:44;;;;;;;;;;;23.20;38.20;;;;;;1515471;76;1809;-69
2021/10/31 11:09:46;;;;;;;;;;;23.30;38.40;;;;;;1536758;76;1153;-70
2021/10/31 11:11:48;;;;;;;;;;;23.20;38.40;;;;;;1522343;76;773;-67
2021/10/31 11:13:54;;;;;;;;;;;23.20;37.80;;;;;;1518836;76;729;-67
2021/10/31 11:15:56;;;;;;;;;;;23.20;36.80;;;;;;1527309;76;853;-70
2021/10/31 11:17:59;;;;;;;;;;;23.20;37.80;;;;;;1549700;76;775;-69
2021/10/31 11:20:01;;;;;;;;;;;23.10;37.30;;;;;;1535417;76;1940;-70
2021/10/31 11:22:02;;;;;;;;;;;23.20;37.30;;;;;;1536063;76;1175;-71
2021/10/31 11:24:06;;;;;;;;;;;23.20;37.40;;;;;;1515216;76;664;-70
2021/10/31 11:26:08;;;;;;;;;;;23.20;37.50;;;;;;1520781;77;679;-76
2021/10/31 11:28:15;;;;;;;;;;;23.20;37.60;;;;;;1504295;77;706;-70
2021/10/31 11:30:15;;;;;;;;;;;23.20;37.70;;;;;;1493180;77;1125;-71
2021/10/31 11:32:17;;;;;;;;;;;23.20;37.90;;;;;;1484894;77;809;-73
2021/10/31 11:34:19;;;;;;;;;;;23.20;38.00;;;;;;1520151;77;727;-70
2021/10/31 11:36:21;;;;;;;;;;;23.20;38.00;;;;;;1527329;77;654;-71
2021/10/31 11:38:23;;;;;;;;;;;23.20;37.30;;;;;;1496556;77;782;-70
2021/10/31 11:40:33;;;;;;;;;;;23.10;36.70;;;;;;1498332;77;1936;-72
2021/10/31 11:42:35;;;;;;;;;;;23.20;37.30;;;;;;1502183;77;1830;-71
2021/10/31 11:44:55;;;;;;;;;;;23.10;35.50;;;;;;1512695;77;707;-72
2021/10/31 11:46:57;;;;;;;;;;;23.00;35.70;;;;;;1507774;77;675;-70
2021/10/31 11:49:00;;;;;;;;;;;22.90;36.00;;;;;;1507748;77;734;-70
2021/10/31 11:51:04;;;;;;;;;;;22.80;37.10;;;;;;1508629;77;1103;-74
2021/10/31 11:53:19;;;;;;;;;;;22.80;38.50;;;;;;1522190;77;766;-74
2021/10/31 11:55:28;;;;;;;;;;;22.60;38.30;;;;;;1496261;78;782;-74
2021/10/31 11:57:30;;;;;;;;;;;22.70;39.80;;;;;;1490068;78;652;-74
2021/10/31 11:59:32;;;;;;;;;;;22.60;39.10;;;;;;1490482;79;1940;-74
2021/10/31 12:01:38;;;;;;;;;;;22.60;36.80;;;;;;1499944;79;814;-74
2021/10/31 12:03:41;;;;;;;;;;;22.50;38.50;;;;;;1497518;79;870;-74
2021/10/31 12:05:43;;;;;;;;;;;22.60;38.50;;;;;;1497451;79;695;-72
2021/10/31 12:07:45;;;;;;;;;;;22.60;37.10;;;;;;1490669;79;603;-72
2021/10/31 12:09:47;;;;;;;;;;;22.50;35.20;;;;;;1497072;79;1152;-73
2021/10/31 12:11:51;;;;;;;;;;;22.50;36.80;;;;;;1464308;79;977;-72
2021/10/31 12:13:55;;;;;;;;;;;22.50;37.30;;;;;;1520844;76;792;-74
2021/10/31 12:16:14;;;;;;;;;;;22.50;36.60;;;;;;1525099;76;721;-72